Arcata, California
Current Conditions -  °F | °C
As of 2:53 PM on Friday 31 Oct 2014 (Local Time) from KACV Reporting Station
Clear Clear  
Wind Chill: 59°   Ceiling: Unl
Heat Index: 59°   Visibility: 10mi
Dew Point: 50°   Wind: 7mph
Humidity: 72%   Direction: 280°W
Pressure: 29.82"   Gusts: NA
Location:  40.87°N, 124.08°W
Report Text: KACV 312153Z AUTO 28006KT 10SM CLR 15/10 A2982 RMK AO2 SLP102 T01500100
Loading
Personal Weather Stations






























Interactive Weather Map
Tropical Storm Tracking
New forecast layout! Learn more

10-Day Weather Forecast

Advertisements
Track Severe Weather on mobile